Time;durP1;ratioP1;P1;durP2;ratioP2;P2;SDS_P1;SDS_P2;PMS_P1;PMS_P2;Temp;Humidity;BMP_temperature;BMP_pressure;BME280_temperature;BME280_humidity;BME280_pressure;Samples;Min_cycle;Max_cycle;Signal;HPM_P1;HPM_P2
2024/01/22 00:01:21;;;;;;;11.07;6.87;;;;;;;3.72;97.22;100583.53;5056264;28;20207;-72
2024/01/22 00:03:49;;;;;;;10.83;7.47;;;;;;;3.90;96.70;100587.41;5056148;28;20232;-72
2024/01/22 00:06:18;;;;;;;11.77;7.87;;;;;;;3.88;97.11;100584.00;5056121;28;20392;-73
2024/01/22 00:08:46;;;;;;;11.87;7.63;;;;;;;3.89;96.73;100570.66;5055742;28;20649;-72
2024/01/22 00:11:15;;;;;;;13.53;7.60;;;;;;;3.88;97.22;100553.06;5055802;28;20237;-73
2024/01/22 00:13:45;;;;;;;11.77;7.17;;;;;;;3.97;96.97;100543.56;5055435;28;20280;-73
2024/01/22 00:16:15;;;;;;;10.40;7.17;;;;;;;4.07;96.46;100507.44;5055274;28;20301;-73
2024/01/22 00:18:43;;;;;;;11.50;6.33;;;;;;;3.98;97.74;100516.09;5056005;28;20618;-72
2024/01/22 00:21:12;;;;;;;12.00;7.70;;;;;;;4.12;97.46;100504.38;5055516;28;20572;-71
2024/01/22 00:23:41;;;;;;;8.70;6.53;;;;;;;4.16;97.27;100533.16;5055742;28;20237;-71
2024/01/22 00:26:12;;;;;;;10.97;6.73;;;;;;;4.19;96.28;100524.97;5055787;28;20260;-71
2024/01/22 00:28:41;;;;;;;10.90;7.23;;;;;;;4.28;96.57;100513.59;5055737;28;20272;-70
2024/01/22 00:31:11;;;;;;;9.83;6.43;;;;;;;4.21;97.45;100504.50;5055670;28;20214;-70
2024/01/22 00:33:39;;;;;;;13.40;6.80;;;;;;;4.22;97.33;100489.41;5055585;28;20260;-71
2024/01/22 00:36:08;;;;;;;14.30;7.67;;;;;;;4.31;95.84;100468.31;5055275;28;20245;-71
2024/01/22 00:38:39;;;;;;;9.20;6.37;;;;;;;4.38;95.80;100479.25;5055647;28;20628;-70
2024/01/22 00:41:08;;;;;;;13.93;7.03;;;;;;;4.36;95.76;100475.88;5055505;28;20576;-71
2024/01/22 00:43:37;;;;;;;10.00;6.03;;;;;;;4.34;96.13;100472.53;5055444;28;20314;-70
2024/01/22 00:46:06;;;;;;;9.70;5.97;;;;;;;4.44;95.79;100466.31;5055565;28;20244;-70
2024/01/22 00:48:36;;;;;;;9.77;6.80;;;;;;;4.42;95.37;100455.00;5055339;28;20209;-71
2024/01/22 00:51:05;;;;;;;11.13;6.50;;;;;;;4.42;95.20;100423.19;5055348;28;20210;-71
2024/01/22 00:53:33;;;;;;;8.33;5.73;;;;;;;4.46;95.33;100421.97;5055229;28;20280;-71
2024/01/22 00:56:02;;;;;;;8.50;6.23;;;;;;;4.38;95.38;100390.00;5055229;28;20217;-70
2024/01/22 00:58:34;;;;;;;11.17;6.20;;;;;;;4.53;95.20;100407.22;5054995;28;20545;-71
2024/01/22 01:01:03;;;;;;;9.47;6.10;;;;;;;4.53;94.61;100409.03;5055173;28;20260;-71
2024/01/22 01:03:31;;;;;;;8.17;6.07;;;;;;;4.56;93.79;100387.56;5054713;28;20567;-71
2024/01/22 01:06:01;;;;;;;10.43;5.77;;;;;;;4.62;93.88;100375.63;5055071;28;20209;-71
2024/01/22 01:08:30;;;;;;;8.83;5.80;;;;;;;4.58;94.19;100367.06;5054880;28;20588;-71
2024/01/22 01:10:59;;;;;;;8.70;5.57;;;;;;;4.68;93.85;100361.81;5054921;28;20261;-70
2024/01/22 01:13:27;;;;;;;8.90;5.50;;;;;;;4.67;94.12;100329.16;5054829;28;20237;-71
2024/01/22 01:15:56;;;;;;;9.67;5.53;;;;;;;4.75;93.49;100337.31;5054907;28;20206;-70
2024/01/22 01:18:24;;;;;;;9.50;5.00;;;;;;;4.80;93.89;100299.75;5054801;28;20292;-70
2024/01/22 01:20:53;;;;;;;7.50;5.67;;;;;;;4.80;94.97;100287.34;5054762;28;20206;-70
2024/01/22 01:23:23;;;;;;;9.00;5.30;;;;;;;4.77;97.80;100289.41;5054639;28;20222;-70
2024/01/22 01:25:51;;;;;;;8.33;5.40;;;;;;;4.73;99.26;100319.81;5054853;28;20267;-71
2024/01/22 01:28:20;;;;;;;8.93;5.43;;;;;;;4.71;99.70;100327.94;5054602;28;20209;-71
2024/01/22 01:30:48;;;;;;;8.80;5.50;;;;;;;4.66;100.00;100305.44;5054520;28;20258;-71
2024/01/22 01:33:17;;;;;;;10.00;5.40;;;;;;;4.60;100.00;100312.09;5054422;28;20232;-71
2024/01/22 01:35:46;;;;;;;8.43;5.40;;;;;;;4.64;100.00;100308.22;5054153;28;20214;-71
2024/01/22 01:38:14;;;;;;;8.83;5.27;;;;;;;4.67;100.00;100299.16;5054113;28;20765;-70
2024/01/22 01:40:44;;;;;;;9.70;5.13;;;;;;;4.80;98.73;100284.69;5054358;28;20281;-71
2024/01/22 01:43:16;;;;;;;7.13;5.37;;;;;;;4.73;99.25;100280.88;5054283;28;20253;-71
2024/01/22 01:45:44;;;;;;;6.17;4.93;;;;;;;4.80;97.82;100274.06;5054320;28;20636;-71
2024/01/22 01:48:14;;;;;;;10.23;4.97;;;;;;;4.88;97.91;100270.75;5053960;28;20208;-70
2024/01/22 01:50:43;;;;;;;8.43;4.93;;;;;;;4.88;97.24;100266.28;5054115;28;20320;-70
2024/01/22 01:53:11;;;;;;;7.80;5.00;;;;;;;4.87;97.76;100231.94;5054479;28;20261;-71
2024/01/22 01:55:41;;;;;;;10.50;4.77;;;;;;;4.92;97.74;100222.63;5054136;28;20256;-70
2024/01/22 01:58:11;;;;;;;8.40;5.00;;;;;;;4.92;98.32;100196.09;5054068;28;20297;-71
2024/01/22 02:00:40;;;;;;;6.67;4.60;;;;;;;4.87;99.53;100168.28;5053920;28;20633;-70
2024/01/22 02:03:10;;;;;;;6.60;4.90;;;;;;;4.91;99.58;100217.44;5053843;28;20262;-71
2024/01/22 02:05:39;;;;;;;8.93;4.97;;;;;;;4.88;99.35;100192.03;5054053;28;20213;-70
2024/01/22 02:08:08;;;;;;;7.20;5.00;;;;;;;4.95;98.93;100179.03;5053851;28;20244;-71
2024/01/22 02:10:36;;;;;;;6.60;5.13;;;;;;;4.99;97.95;100193.72;5053809;28;20230;-70
2024/01/22 02:13:08;;;;;;;7.17;5.17;;;;;;;5.01;97.74;100157.25;5053466;28;20264;-71
2024/01/22 02:15:38;;;;;;;7.63;4.53;;;;;;;5.07;97.35;100128.34;5053869;28;20198;-71
2024/01/22 02:18:07;;;;;;;11.20;4.80;;;;;;;5.07;97.56;100116.91;5053373;28;20704;-70
2024/01/22 02:20:36;;;;;;;9.20;4.47;;;;;;;5.26;95.63;100143.44;5053704;28;20350;-70
2024/01/22 02:23:07;;;;;;;8.53;4.77;;;;;;;5.31;94.96;100151.00;5053570;28;20230;-70
2024/01/22 02:25:35;;;;;;;7.13;4.67;;;;;;;5.34;94.82;100110.91;5053616;28;20301;-71
2024/01/22 02:28:04;;;;;;;8.03;4.37;;;;;;;5.27;95.48;100077.94;5053265;28;20256;-70
2024/01/22 02:30:32;;;;;;;8.37;4.50;;;;;;;5.20;95.80;100090.09;5053495;28;20276;-70
2024/01/22 02:33:01;;;;;;;5.30;4.20;;;;;;;5.26;96.06;100124.88;5053446;28;20317;-71
2024/01/22 02:35:29;;;;;;;7.40;4.03;;;;;;;5.27;96.33;100107.97;5053368;28;20214;-71
2024/01/22 02:37:58;;;;;;;7.67;4.50;;;;;;;5.41;95.25;100107.50;5052943;28;20260;-70
2024/01/22 02:40:28;;;;;;;6.60;4.30;;;;;;;5.38;96.11;100099.00;5053475;28;20226;-70
2024/01/22 02:42:56;;;;;;;7.10;4.80;;;;;;;5.31;96.91;100096.06;5053286;28;20288;-71
2024/01/22 02:45:25;;;;;;;5.77;3.93;;;;;;;5.42;95.77;100095.91;5053382;28;20292;-71
2024/01/22 02:47:53;;;;;;;6.20;4.20;;;;;;;5.34;96.36;100089.66;5053580;28;20331;-71
2024/01/22 02:50:22;;;;;;;8.33;4.40;;;;;;;5.45;96.00;100087.66;5053239;28;20257;-71
2024/01/22 02:52:50;;;;;;;8.40;4.47;;;;;;;5.57;95.42;100097.16;5053186;28;20312;-70
2024/01/22 02:55:19;;;;;;;7.67;4.50;;;;;;;5.44;96.81;100082.50;5053308;28;20232;-70
2024/01/22 02:57:50;;;;;;;6.27;4.20;;;;;;;5.43;97.16;100086.97;5053280;28;20210;-71
2024/01/22 03:00:19;;;;;;;5.53;3.83;;;;;;;5.61;96.19;100068.50;5053277;28;20230;-70
2024/01/22 03:02:47;;;;;;;4.93;3.83;;;;;;;5.52;95.81;100056.91;5053148;28;20226;-71
2024/01/22 03:05:17;;;;;;;5.23;4.00;;;;;;;5.53;96.69;100053.28;5053219;28;20213;-70
2024/01/22 03:07:45;;;;;;;6.07;3.30;;;;;;;5.68;95.46;100048.34;5053116;28;20202;-71
2024/01/22 03:10:14;;;;;;;6.70;3.60;;;;;;;5.65;96.00;100039.81;5053078;28;20317;-71
2024/01/22 03:12:43;;;;;;;7.53;3.90;;;;;;;5.69;95.55;100033.22;5053016;28;20222;-71
2024/01/22 03:15:13;;;;;;;5.70;4.33;;;;;;;5.69;95.81;100036.72;5053097;28;20256;-71
2024/01/22 03:17:41;;;;;;;8.30;5.37;;;;;;;5.73;95.03;100037.25;5053809;28;20206;-71
2024/01/22 03:20:13;;;;;;;7.03;5.10;;;;;;;5.74;95.60;100033.63;5053092;28;20216;-71
2024/01/22 03:22:41;;;;;;;8.30;4.60;;;;;;;5.80;94.92;100014.44;5052969;28;20230;-71
2024/01/22 03:25:14;;;;;;;8.20;4.80;;;;;;;5.80;94.72;100014.44;5052914;28;20547;-71
2024/01/22 03:27:42;;;;;;;8.43;4.97;;;;;;;5.83;95.11;100014.97;5052652;28;20543;-71
2024/01/22 03:30:13;;;;;;;7.53;4.43;;;;;;;5.80;95.38;100025.91;5052840;28;20210;-70
2024/01/22 03:32:42;;;;;;;6.90;3.90;;;;;;;5.86;94.86;100014.72;5052808;28;20221;-71
2024/01/22 03:35:11;;;;;;;12.53;6.70;;;;;;;5.84;94.65;100037.06;5052783;28;20213;-71
2024/01/22 03:37:40;;;;;;;6.77;4.27;;;;;;;5.88;95.21;100014.59;5052866;28;20210;-71
2024/01/22 03:40:10;;;;;;;8.27;5.17;;;;;;;6.06;93.43;100007.50;5052843;28;20202;-70
2024/01/22 03:42:39;;;;;;;12.37;7.20;;;;;;;6.02;94.09;100001.66;5052978;28;20226;-71
2024/01/22 03:45:08;;;;;;;7.60;4.70;;;;;;;5.91;95.49;100001.00;5052512;28;20297;-71
2024/01/22 03:47:38;;;;;;;6.23;4.70;;;;;;;5.88;95.70;100018.09;5052629;28;20260;-71
2024/01/22 03:50:07;;;;;;;11.93;7.20;;;;;;;5.99;94.62;100030.34;5054660;28;20212;-71
2024/01/22 03:52:36;;;;;;;10.73;5.30;;;;;;;5.97;95.01;100022.50;5056353;28;20245;-71
2024/01/22 03:55:05;;;;;;;20.63;11.27;;;;;;;5.93;94.91;100005.16;5056404;28;20206;-71
2024/01/22 03:57:33;;;;;;;13.87;7.57;;;;;;;5.97;94.87;100003.91;5056371;28;20234;-71
2024/01/22 04:00:02;;;;;;;6.90;3.63;;;;;;;6.08;94.60;100010.81;5056321;28;20249;-71
2024/01/22 04:02:34;;;;;;;5.27;3.47;;;;;;;6.14;94.39;99996.94;5056177;28;20213;-71
2024/01/22 04:05:06;;;;;;;7.23;3.80;;;;;;;6.13;93.86;100010.41;5055956;28;20668;-71
2024/01/22 04:07:35;;;;;;;4.40;3.40;;;;;;;6.11;94.09;100007.88;5056252;28;20190;-71
2024/01/22 04:10:03;;;;;;;5.83;3.20;;;;;;;6.19;93.07;99992.03;5056089;28;20763;-71
2024/01/22 04:12:32;;;;;;;5.20;2.97;;;;;;;6.19;94.11;100015.09;5055975;28;20236;-71
2024/01/22 04:15:00;;;;;;;7.60;3.60;;;;;;;6.12;93.44;100020.19;5055767;28;20211;-71
2024/01/22 04:17:29;;;;;;;11.07;7.10;;;;;;;6.08;94.52;100018.81;5055943;28;20241;-71
2024/01/22 04:19:57;;;;;;;6.27;3.90;;;;;;;6.23;93.20;100004.03;5055958;28;20218;-71
2024/01/22 04:22:27;;;;;;;6.97;4.40;;;;;;;6.21;93.75;99984.72;5055886;28;20210;-71
2024/01/22 04:24:56;;;;;;;13.80;8.20;;;;;;;6.23;93.22;99980.09;5055909;28;20275;-71
2024/01/22 04:27:25;;;;;;;9.33;5.77;;;;;;;6.26;93.27;99968.31;5055412;28;20715;-71
2024/01/22 04:29:53;;;;;;;9.57;7.33;;;;;;;6.18;93.19;99955.78;5055715;28;20213;-71
2024/01/22 04:32:22;;;;;;;12.90;8.73;;;;;;;6.21;93.64;99975.91;5055559;28;20226;-71
2024/01/22 04:34:50;;;;;;;7.57;4.97;;;;;;;6.11;94.89;99981.28;5055362;28;20245;-71
2024/01/22 04:37:21;;;;;;;8.10;5.57;;;;;;;6.08;95.02;99957.69;5055365;28;20644;-71
2024/01/22 04:39:50;;;;;;;6.03;4.40;;;;;;;6.10;95.12;99943.25;5055581;28;20229;-71
2024/01/22 04:42:20;;;;;;;8.07;5.70;;;;;;;6.27;93.80;99943.44;5055136;28;20198;-71
2024/01/22 04:44:49;;;;;;;6.37;4.63;;;;;;;6.25;94.22;99935.59;5055567;28;20229;-71
2024/01/22 04:47:18;;;;;;;6.60;4.20;;;;;;;6.46;92.34;99928.13;5055415;28;20209;-71
2024/01/22 04:49:47;;;;;;;8.63;5.27;;;;;;;6.34;92.93;99926.69;5055369;28;20213;-71
2024/01/22 04:52:15;;;;;;;8.43;5.57;;;;;;;6.41;93.05;99908.31;5055308;28;20226;-71
2024/01/22 04:54:44;;;;;;;9.33;6.23;;;;;;;6.44;93.21;99900.00;5055250;28;20661;-71
2024/01/22 04:57:13;;;;;;;7.47;4.50;;;;;;;6.43;92.84;99898.38;5055271;28;20297;-71
2024/01/22 04:59:42;;;;;;;10.03;6.37;;;;;;;6.48;92.67;99910.19;5055239;28;20267;-71
2024/01/22 05:02:10;;;;;;;9.60;5.20;;;;;;;6.38;93.49;99906.78;5054453;28;20232;-71
2024/01/22 05:04:39;;;;;;;25.97;14.13;;;;;;;6.55;91.89;99900.63;5055032;28;20262;-71
2024/01/22 05:07:07;;;;;;;13.23;8.53;;;;;;;6.56;92.41;99894.31;5055333;28;20208;-72
2024/01/22 05:09:36;;;;;;;16.57;11.30;;;;;;;6.60;91.42;99882.38;5055068;28;20234;-71
2024/01/22 05:12:05;;;;;;;9.67;6.40;;;;;;;6.75;90.57;99863.16;5054956;28;20226;-71
2024/01/22 05:14:38;;;;;;;11.90;7.73;;;;;;;6.67;91.01;99871.09;5054507;28;20600;-71
2024/01/22 05:17:06;;;;;;;6.37;5.10;;;;;;;6.62;91.20;99868.91;5054953;28;20190;-71
2024/01/22 05:19:34;;;;;;;5.70;3.87;;;;;;;6.53;92.41;99865.38;5055049;28;20210;-70
2024/01/22 05:22:03;;;;;;;4.93;3.30;;;;;;;6.63;91.85;99855.47;5054786;28;20206;-71
2024/01/22 05:24:32;;;;;;;6.57;3.50;;;;;;;6.70;91.34;99849.50;5055713;28;20233;-71
2024/01/22 05:27:00;;;;;;;5.20;2.60;;;;;;;6.75;91.02;99853.34;5054402;28;20557;-71
2024/01/22 05:29:29;;;;;;;3.10;2.80;;;;;;;6.80;90.69;99826.28;5054489;28;20206;-71
2024/01/22 05:31:58;;;;;;;5.33;2.87;;;;;;;6.82;91.39;99829.63;5054379;28;20237;-71
2024/01/22 05:34:27;;;;;;;4.50;2.37;;;;;;;6.75;91.70;99826.75;5054286;28;20307;-71
2024/01/22 05:36:56;;;;;;;3.83;2.43;;;;;;;6.85;92.21;99832.78;5054563;28;20194;-71
2024/01/22 05:39:24;;;;;;;6.53;3.13;;;;;;;6.95;92.47;99824.72;5054343;28;20213;-71
2024/01/22 05:41:52;;;;;;;3.33;2.70;;;;;;;6.94;93.95;99841.66;5054113;28;20236;-70
2024/01/22 05:44:21;;;;;;;5.97;3.07;;;;;;;6.88;95.10;99823.69;5054140;28;20222;-71
2024/01/22 05:46:50;;;;;;;5.47;2.70;;;;;;;6.87;97.00;99814.88;5054204;28;20256;-71
2024/01/22 05:49:20;;;;;;;4.70;2.50;;;;;;;6.81;98.75;99798.72;5054225;28;20213;-71
2024/01/22 05:51:49;;;;;;;6.27;3.30;;;;;;;6.76;100.00;99787.69;5054198;28;20222;-70
2024/01/22 05:54:17;;;;;;;3.97;3.07;;;;;;;6.71;100.00;99788.19;5054127;28;20228;-71
2024/01/22 05:56:46;;;;;;;4.43;2.83;;;;;;;6.73;100.00;99786.19;5053811;28;20578;-71
2024/01/22 05:59:14;;;;;;;5.20;3.00;;;;;;;6.71;100.00;99800.66;5054150;28;20209;-71
2024/01/22 06:01:43;;;;;;;3.97;2.60;;;;;;;6.71;100.00;99782.03;5053995;28;20259;-71
2024/01/22 06:04:12;;;;;;;5.40;3.33;;;;;;;6.62;100.00;99787.31;5053907;28;20230;-71
2024/01/22 06:06:43;;;;;;;5.87;3.13;;;;;;;6.66;100.00;99798.47;5053981;28;20213;-71
2024/01/22 06:09:12;;;;;;;4.97;2.57;;;;;;;6.58;100.00;99787.75;5053965;28;20221;-71
2024/01/22 06:11:40;;;;;;;4.20;2.97;;;;;;;6.57;100.00;99789.63;5053443;28;20205;-71
2024/01/22 06:14:09;;;;;;;5.00;3.03;;;;;;;6.52;100.00;99777.75;5053669;28;20233;-71
2024/01/22 06:16:37;;;;;;;6.53;3.30;;;;;;;6.56;100.00;99773.81;5053849;28;20213;-71
2024/01/22 06:19:06;;;;;;;3.77;2.80;;;;;;;6.53;100.00;99772.31;5053589;28;20229;-71
2024/01/22 06:21:34;;;;;;;5.57;2.77;;;;;;;6.52;100.00;99746.69;5053667;28;20205;-71
2024/01/22 06:24:05;;;;;;;4.63;3.10;;;;;;;6.54;100.00;99762.50;5053929;28;20280;-71
2024/01/22 06:26:33;;;;;;;3.97;2.90;;;;;;;6.53;100.00;99740.41;5053641;28;20212;-71
2024/01/22 06:29:02;;;;;;;3.93;3.50;;;;;;;6.56;100.00;99748.06;5053302;28;20201;-71
2024/01/22 06:31:31;;;;;;;5.83;3.13;;;;;;;6.55;100.00;99722.44;5054164;28;20260;-71
2024/01/22 06:34:00;;;;;;;5.17;2.90;;;;;;;6.58;100.00;99735.41;5053421;28;20236;-71
2024/01/22 06:36:30;;;;;;;5.00;3.00;;;;;;;6.53;100.00;99732.41;5053708;28;20305;-70
2024/01/22 06:38:58;;;;;;;6.63;2.93;;;;;;;6.55;100.00;99729.59;5053487;28;20241;-70
2024/01/22 06:41:28;;;;;;;3.97;2.40;;;;;;;6.57;100.00;99731.13;5053442;28;20216;-70
2024/01/22 06:43:57;;;;;;;4.30;2.60;;;;;;;6.54;100.00;99741.22;5053385;28;20226;-70
2024/01/22 06:46:25;;;;;;;4.43;2.80;;;;;;;6.61;100.00;99734.25;5053439;28;20210;-70
2024/01/22 06:48:53;;;;;;;4.20;2.40;;;;;;;6.68;100.00;99723.84;5053726;28;20288;-70
2024/01/22 06:51:22;;;;;;;5.23;2.90;;;;;;;6.73;100.00;99753.44;5053356;28;20217;-69
2024/01/22 06:54:02;;;;;;;5.33;2.83;;;;;;;6.70;100.00;99728.00;5053165;28;20241;-70
2024/01/22 06:56:32;;;;;;;3.07;2.53;;;;;;;6.64;100.00;99736.63;5053490;28;20233;-70
2024/01/22 06:59:00;;;;;;;4.63;2.80;;;;;;;6.71;100.00;99740.31;5053274;28;20206;-70
2024/01/22 07:01:29;;;;;;;5.30;2.40;;;;;;;6.70;100.00;99728.00;5052904;28;20624;-70
2024/01/22 07:03:57;;;;;;;4.00;2.50;;;;;;;6.71;100.00;99736.81;5053137;28;20241;-70
2024/01/22 07:06:26;;;;;;;4.57;2.50;;;;;;;6.76;100.00;99731.84;5053394;28;20216;-70
2024/01/22 07:08:55;;;;;;;5.60;2.63;;;;;;;6.81;100.00;99722.41;5053462;28;20217;-70
2024/01/22 07:11:23;;;;;;;4.27;2.47;;;;;;;6.84;100.00;99735.38;5053134;28;20217;-70
2024/01/22 07:13:53;;;;;;;3.60;2.53;;;;;;;6.89;100.00;99748.16;5052898;28;20782;-70
2024/01/22 07:16:22;;;;;;;2.57;2.10;;;;;;;6.91;100.00;99752.34;5053319;28;20301;-70
2024/01/22 07:18:50;;;;;;;3.37;2.63;;;;;;;6.98;100.00;99752.56;5053325;28;20297;-70
2024/01/22 07:21:19;;;;;;;4.90;2.20;;;;;;;7.00;100.00;99766.50;5053090;28;20221;-70
2024/01/22 07:23:47;;;;;;;2.83;2.20;;;;;;;6.98;100.00;99760.53;5053783;28;20226;-70
2024/01/22 07:26:16;;;;;;;3.73;2.40;;;;;;;6.99;100.00;99776.31;5056918;28;20206;-70
2024/01/22 07:28:44;;;;;;;4.63;2.20;;;;;;;6.98;100.00;99780.00;5056914;28;20234;-70
2024/01/22 07:31:15;;;;;;;3.00;2.17;;;;;;;7.06;100.00;99781.84;5056596;28;20667;-70
2024/01/22 07:33:43;;;;;;;3.43;2.20;;;;;;;7.11;100.00;99760.91;5056725;28;20317;-70
2024/01/22 07:36:13;;;;;;;3.27;2.30;;;;;;;7.16;100.00;99771.06;5056427;28;20218;-70
2024/01/22 07:38:41;;;;;;;1.90;1.80;;;;;;;7.18;100.00;99767.25;5056758;28;20202;-70
2024/01/22 07:41:11;;;;;;;2.30;2.00;;;;;;;7.28;100.00;99770.59;5056407;28;20672;-70
2024/01/22 07:43:39;;;;;;;3.13;2.00;;;;;;;7.32;100.00;99758.63;5056258;28;20781;-70
2024/01/22 07:46:08;;;;;;;2.50;2.10;;;;;;;7.41;100.00;99759.47;5056577;28;20300;-70
2024/01/22 07:48:38;;;;;;;3.23;1.70;;;;;;;7.35;100.00;99766.28;5056542;28;20297;-70
2024/01/22 07:51:06;;;;;;;3.57;2.13;;;;;;;7.44;100.00;99762.63;5056495;28;20210;-62
2024/01/22 07:53:35;;;;;;;2.87;1.70;;;;;;;7.42;100.00;99758.47;5056307;28;20229;-66
2024/01/22 07:56:04;;;;;;;3.23;2.00;;;;;;;7.47;100.00;99764.13;5056452;28;20206;-66
2024/01/22 07:58:33;;;;;;;2.27;1.40;;;;;;;7.50;100.00;99748.66;5056735;28;20210;-66
2024/01/22 08:01:01;;;;;;;2.60;1.90;;;;;;;7.45;100.00;99756.31;5056381;28;20229;-66
2024/01/22 08:03:30;;;;;;;2.37;1.67;;;;;;;7.52;100.00;99757.34;5056208;28;20305;-66
2024/01/22 08:06:00;;;;;;;2.67;1.73;;;;;;;7.51;100.00;99765.47;5055966;28;20206;-66
2024/01/22 08:08:29;;;;;;;4.30;1.97;;;;;;;7.53;100.00;99782.94;5056241;28;20288;-66
2024/01/22 08:10:58;;;;;;;2.27;1.50;;;;;;;7.56;100.00;99779.97;5056112;28;20722;-66
2024/01/22 08:13:26;;;;;;;3.97;1.90;;;;;;;7.62;100.00;99768.66;5055947;28;20238;-66
2024/01/22 08:15:55;;;;;;;2.13;1.60;;;;;;;7.62;100.00;99771.31;5056642;28;20210;-66
2024/01/22 08:18:23;;;;;;;3.10;1.70;;;;;;;7.60;100.00;99764.50;5056074;28;20271;-66
2024/01/22 08:20:52;;;;;;;5.80;3.10;;;;;;;7.60;100.00;99757.31;5056000;28;20209;-66
2024/01/22 08:23:23;;;;;;;7.40;4.47;;;;;;;7.63;100.00;99762.34;5055839;28;20578;-66
2024/01/22 08:25:51;;;;;;;6.20;4.13;;;;;;;7.63;100.00;99759.69;5055929;28;20210;-66
2024/01/22 08:28:20;;;;;;;5.53;3.90;;;;;;;7.69;100.00;99783.97;5055815;28;20210;-67
2024/01/22 08:30:48;;;;;;;3.00;2.30;;;;;;;7.61;100.00;99774.13;5055828;28;20209;-67
2024/01/22 08:33:17;;;;;;;2.87;2.20;;;;;;;7.52;100.00;99789.28;5055846;28;20321;-67
2024/01/22 08:35:45;;;;;;;2.27;2.07;;;;;;;7.52;100.00;99781.31;5054556;28;20221;-66
2024/01/22 08:38:14;;;;;;;2.23;1.90;;;;;;;7.54;100.00;99776.63;5055688;28;20289;-66
2024/01/22 08:40:46;;;;;;;2.43;2.20;;;;;;;7.50;100.00;99777.94;5055617;28;20216;-66
2024/01/22 08:43:15;;;;;;;2.97;2.67;;;;;;;7.60;100.00;99762.66;5055559;28;20218;-68
2024/01/22 08:45:43;;;;;;;2.23;1.97;;;;;;;7.55;100.00;99762.31;5055224;28;20668;-68
2024/01/22 08:48:12;;;;;;;2.83;2.40;;;;;;;7.53;100.00;99774.97;5055462;28;20594;-68
2024/01/22 08:50:41;;;;;;;2.70;1.90;;;;;;;7.50;100.00;99769.97;5055437;28;20210;-68
2024/01/22 08:53:09;;;;;;;2.90;2.30;;;;;;;7.42;100.00;99772.63;5055205;28;20234;-68
2024/01/22 08:55:38;;;;;;;2.40;2.20;;;;;;;7.37;100.00;99774.94;5055328;28;20264;-68
2024/01/22 08:58:09;;;;;;;6.80;2.90;;;;;;;7.33;100.00;99775.44;5055237;28;20214;-68
2024/01/22 09:00:37;;;;;;;3.47;2.27;;;;;;;7.31;100.00;99778.25;5055245;28;20229;-68
2024/01/22 09:03:06;;;;;;;2.73;2.40;;;;;;;7.32;100.00;99777.28;5055097;28;20249;-69
2024/01/22 09:05:35;;;;;;;4.20;2.03;;;;;;;7.32;100.00;99771.94;5055151;28;20217;-69
2024/01/22 09:08:03;;;;;;;2.20;1.97;;;;;;;7.39;100.00;99788.94;5055083;28;20206;-69
2024/01/22 09:10:32;;;;;;;3.73;2.03;;;;;;;7.38;100.00;99783.75;5055047;28;20289;-69
2024/01/22 09:13:00;;;;;;;3.07;1.80;;;;;;;7.40;100.00;99790.59;5054901;28;20319;-69
2024/01/22 09:15:30;;;;;;;2.17;1.83;;;;;;;7.40;100.00;99795.06;5054647;28;20668;-69
2024/01/22 09:17:59;;;;;;;1.93;1.50;;;;;;;7.39;100.00;99794.25;5054596;28;20256;-69
2024/01/22 09:20:27;;;;;;;3.50;1.50;;;;;;;7.36;100.00;99789.28;5054818;28;20240;-68
2024/01/22 09:22:56;;;;;;;1.70;1.60;;;;;;;7.31;100.00;99796.91;5054750;28;20261;-69
2024/01/22 09:25:24;;;;;;;2.10;1.53;;;;;;;7.29;100.00;99782.94;5054817;28;20260;-69
2024/01/22 09:27:53;;;;;;;1.80;1.60;;;;;;;7.29;100.00;99793.56;5054732;28;20202;-69
2024/01/22 09:30:21;;;;;;;2.60;1.63;;;;;;;7.28;100.00;99775.94;5054661;28;20230;-68
2024/01/22 09:32:57;;;;;;;2.90;1.60;;;;;;;7.27;100.00;99776.06;5054546;28;20265;-68
2024/01/22 09:35:25;;;;;;;2.30;1.60;;;;;;;7.26;100.00;99780.56;5054135;28;20229;-68
2024/01/22 09:37:54;;;;;;;1.90;1.60;;;;;;;7.22;100.00;99773.91;5054532;28;20276;-68
2024/01/22 09:40:24;;;;;;;3.03;2.73;;;;;;;7.22;100.00;99754.44;5054464;28;20202;-68
2024/01/22 09:43:03;;;;;;;2.40;2.00;;;;;;;7.23;100.00;99756.94;5054361;28;20229;-68
2024/01/22 09:45:33;;;;;;;1.90;1.80;;;;;;;7.26;100.00;99761.94;5054385;28;20233;-69
2024/01/22 09:48:03;;;;;;;2.57;2.00;;;;;;;7.27;100.00;99752.94;5054229;28;20664;-69
2024/01/22 09:50:32;;;;;;;1.70;1.60;;;;;;;7.29;100.00;99753.63;5053984;28;20644;-69
2024/01/22 09:53:09;;;;;;;1.67;1.53;;;;;;;7.28;100.00;99749.31;5054160;28;20321;-69
2024/01/22 09:55:39;;;;;;;2.23;1.70;;;;;;;7.30;100.00;99747.28;5053872;28;20246;-69
2024/01/22 09:58:09;;;;;;;1.80;1.53;;;;;;;7.36;100.00;99748.50;5053871;28;20658;-69
2024/01/22 10:00:40;;;;;;;1.60;1.47;;;;;;;7.39;100.00;99745.50;5054151;28;20191;-69
2024/01/22 10:03:10;;;;;;;2.40;1.70;;;;;;;7.41;100.00;99749.66;5053752;28;20279;-69
2024/01/22 10:05:39;;;;;;;1.87;1.50;;;;;;;7.46;100.00;99747.34;5054063;28;20195;-69
2024/01/22 10:08:08;;;;;;;1.60;1.40;;;;;;;7.49;100.00;99752.34;5053976;28;20210;-69
2024/01/22 10:10:38;;;;;;;1.30;1.20;;;;;;;7.58;100.00;99745.16;5053869;28;20225;-69
2024/01/22 10:13:08;;;;;;;1.80;1.30;;;;;;;7.60;100.00;99748.53;5053820;28;20265;-69
2024/01/22 10:15:38;;;;;;;2.03;1.60;;;;;;;7.59;100.00;99746.84;5053843;28;20222;-69
2024/01/22 10:18:13;;;;;;;2.27;1.40;;;;;;;7.59;100.00;99752.19;5053824;28;20216;-69
2024/01/22 10:20:42;;;;;;;1.60;1.50;;;;;;;7.57;100.00;99747.00;5053817;28;20272;-69
2024/01/22 10:23:13;;;;;;;2.30;1.60;;;;;;;7.59;100.00;99753.00;5053331;28;20707;-69
2024/01/22 10:25:42;;;;;;;3.33;3.00;;;;;;;7.65;100.00;99752.34;5053946;28;20252;-69
2024/01/22 10:28:14;;;;;;;3.47;2.83;;;;;;;7.65;100.00;99747.03;5053613;28;20213;-69
2024/01/22 10:30:42;;;;;;;2.60;2.40;;;;;;;7.74;100.00;99749.69;5053654;28;20197;-69
2024/01/22 10:33:15;;;;;;;2.50;1.90;;;;;;;7.74;100.00;99744.38;5053721;28;20226;-69
2024/01/22 10:35:44;;;;;;;3.20;1.80;;;;;;;7.76;100.00;99734.38;5053155;28;20233;-69
2024/01/22 10:38:16;;;;;;;2.03;1.30;;;;;;;7.84;100.00;99727.19;5053480;28;20214;-69
2024/01/22 10:40:46;;;;;;;1.30;1.13;;;;;;;7.88;100.00;99731.19;5053489;28;20197;-69
2024/01/22 10:43:19;;;;;;;1.30;1.20;;;;;;;8.02;100.00;99735.84;5053090;28;20226;-69
2024/01/22 10:45:49;;;;;;;1.87;1.30;;;;;;;8.10;100.00;99724.34;5053414;28;20217;-69
2024/01/22 10:48:23;;;;;;;1.90;1.60;;;;;;;8.18;100.00;99720.84;5053141;28;20186;-69
2024/01/22 10:51:07;;;;;;;1.93;1.43;;;;;;;8.16;100.00;99729.81;5053440;28;20191;-69
2024/01/22 10:53:36;;;;;;;1.77;1.30;;;;;;;8.14;100.00;99718.50;5053259;28;20229;-69
2024/01/22 10:56:18;;;;;;;2.10;1.70;;;;;;;8.10;100.00;99714.50;5053203;28;20228;-69
2024/01/22 10:58:49;;;;;;;2.47;1.30;;;;;;;8.15;100.00;99722.81;5056009;28;20236;-69
2024/01/22 11:01:23;;;;;;;1.23;1.13;;;;;;;8.16;100.00;99711.16;5059976;28;20343;-69
2024/01/22 11:03:54;;;;;;;2.50;1.47;;;;;;;8.24;100.00;99728.16;5059524;28;20637;-69
2024/01/22 11:06:28;;;;;;;1.87;1.37;;;;;;;8.27;100.00;99720.66;5059916;28;20206;-60
2024/01/22 11:08:58;;;;;;;4.70;1.80;;;;;;;8.25;100.00;99728.00;5059849;28;20201;-68
2024/01/22 11:11:28;;;;;;;2.77;1.93;;;;;;;8.24;100.00;99725.47;5059871;28;20206;-68
2024/01/22 11:13:59;;;;;;;3.67;2.00;;;;;;;8.20;100.00;99722.31;5059877;28;20256;-68
2024/01/22 11:16:28;;;;;;;2.33;1.63;;;;;;;8.16;100.00;99724.50;5059794;28;20217;-68
2024/01/22 11:19:00;;;;;;;2.17;1.47;;;;;;;8.19;100.00;99717.97;5059778;28;20205;-68
2024/01/22 11:21:37;;;;;;;2.27;1.60;;;;;;;8.15;100.00;99716.66;5059776;28;20186;-68
2024/01/22 11:24:11;;;;;;;1.63;1.43;;;;;;;8.14;100.00;99715.00;5059659;28;20230;-68
2024/01/22 11:26:44;;;;;;;3.40;1.90;;;;;;;8.15;100.00;99712.16;5059435;28;20636;-68
2024/01/22 11:29:16;;;;;;;4.17;1.80;;;;;;;8.23;100.00;99719.31;5059758;28;20194;-68
2024/01/22 11:31:44;;;;;;;2.77;1.80;;;;;;;8.25;100.00;99706.66;5059961;28;20209;-68
2024/01/22 11:34:45;;;;;;;2.63;1.70;;;;;;;8.28;100.00;99695.69;5059624;28;20280;-68
2024/01/22 11:37:35;;;;;;;4.00;1.50;;;;;;;8.30;100.00;99707.00;5059746;28;20194;-68
2024/01/22 11:40:09;;;;;;;2.77;1.37;;;;;;;8.36;100.00;99705.47;5059625;28;20248;-68
2024/01/22 11:42:40;;;;;;;3.80;1.57;;;;;;;8.38;100.00;99704.31;5059240;28;20629;-68
2024/01/22 11:45:14;;;;;;;2.07;1.30;;;;;;;8.45;100.00;99696.47;5059307;28;20197;-68